Flight Track Log - Related Links

Times and Time Zones

All times are in EDT time to prevent confusion due to time zone crossing. See the SWA1096 flight status page for this flight to view local times or setup timezone preferences in your user account.

Time Position Orientation Groundspeed Altitude Reporting Facility
EDT Latitude Longitude Course Direction KTS MPH feet Rate Location/Type
Wed 03:43:24 PM 39.1333 -76.6333 131° Southeast 183 211 2,000  Level Potomac TRACON
Wed 03:44:24 PM 39.1000 -76.5833 131° Southeast 246 283 4,300 2,929 Climbing Potomac TRACON
Wed 03:46:14 PM 39.1294 -76.4078 78° East 284 327 10,300 3,035 Climbing Washington Center
Wed 03:47:14 PM 39.1447 -76.2875 81° East 306 352 12,900 3,150 Climbing Washington Center
Wed 03:48:14 PM 39.1600 -76.1564 81° East 343 395 16,600 3,250 Climbing Washington Center
Wed 03:49:14 PM 39.1897 -76.0281 73° East 359 413 19,400 2,750 Climbing Washington Center
Wed 03:50:14 PM 39.2567 -75.9186 52° Northeast 366 421 22,100 2,650 Climbing Washington Center
Wed 03:51:14 PM 39.3342 -75.8169 45° Northeast 379 436 24,700 2,400 Climbing Washington Center
Wed 03:52:14 PM 39.4175 -75.7125 44° Northeast 390 449 26,900 1,950 Climbing Washington Center
Wed 03:53:14 PM 39.5011 -75.6078 44° Northeast 402 463 28,600 1,550 Climbing Washington Center
Wed 03:54:14 PM 39.5906 -75.4972 44° Northeast 421 484 30,000 1,737 Climbing Washington Center
Wed 03:55:46 PM 39.7386 -75.3089 44° Northeast 457 526 33,000 1,804 Climbing New York Center
Wed 03:56:47 PM 39.8303 -75.1958 43° Northeast 457 526 34,600 1,537 Climbing New York Center
Wed 03:57:47 PM 39.9097 -75.0819 48° Northeast 465 535 36,100 1,190 Climbing New York Center
Wed 03:58:48 PM 40.0219 -74.9722 37° Northeast 460 529 37,000 454 Climbing New York Center
Wed 03:59:46 PM 40.1300 -74.9219 20° North 431 496 37,000  Level New York Center
Wed 04:00:47 PM 40.2422 -74.8742 18° North 418 481 37,000  Level New York Center
Wed 04:01:45 PM 40.3542 -74.8292 17° North 418 481 37,000  Level New York Center
Wed 04:02:46 PM 40.4642 -74.7836 17° North 413 475 37,000  Level New York Center
Wed 04:03:47 PM 40.5719 -74.7381 18° North 408 470 37,000  Level New York Center
Wed 04:05:50 PM 40.7928 -74.6442 18° North 418 481 37,000  Level Boston Center
Wed 04:06:50 PM 40.9000 -74.5958 19° North 406 467 37,000  Level Boston Center
Wed 04:07:51 PM 41.0031 -74.5550 17° North 400 460 37,000  Level Boston Center
Wed 04:08:51 PM 41.1142 -74.5092 17° North 405 466 37,000  Level Boston Center
Wed 04:09:52 PM 41.2236 -74.4631 18° North 410 472 37,000  Level Boston Center
Wed 04:10:50 PM 41.3242 -74.4275 15° North 410 472 37,000  Level Boston Center
Wed 04:11:51 PM 41.4419 -74.3731 19° North 403 464 37,000  Level Boston Center
Wed 04:12:51 PM 41.5425 -74.3317 17° North 403 464 37,000  Level Boston Center
Wed 04:13:52 PM 41.6517 -74.2822 19° North 408 470 37,000 -407 Level Boston Center
Wed 04:14:49 PM 41.7650 -74.2353 17° North 413 475 36,200 -1,220 Descending Boston Center
Wed 04:15:50 PM 41.8719 -74.1908 17° North 406 467 34,600 -1,525 Descending Boston Center
Wed 04:16:51 PM 41.9692 -74.1156 30° Northeast 406 467 33,100 -1,289 Descending Boston Center
Wed 04:17:51 PM 42.0356 -73.9803 57° Northeast 395 455 32,000 -1,068 Descending Boston Center
Wed 04:18:49 PM 42.1000 -73.8392 58° Northeast 410 472 31,000 -1,513 Descending Boston Center
Wed 04:19:50 PM 42.1664 -73.6894 59° Northeast 437 503 29,000 -2,033 Descending Boston Center
Wed 04:20:50 PM 42.2261 -73.5617 58° Northeast 437 503 26,900 -2,218 Descending Boston Center
Wed 04:21:49 PM 42.2878 -73.4250 59° Northeast 427 491 24,600 -2,050 Descending Boston Center
Wed 04:22:50 PM 42.3450 -73.2942 59° Northeast 421 484 22,800 -1,721 Descending Boston Center
Wed 04:23:51 PM 42.4086 -73.1572 58° Northeast 408 470 21,100 -1,714 Descending Boston Center
Wed 04:24:49 PM 42.4614 -73.0367 59° Northeast 380 437 19,400 -1,068 Descending Boston Center
Wed 04:25:49 PM 42.5097 -72.9386 56° Northeast 360 414 19,000 -645 Descending Boston Center
Wed 04:26:50 PM 42.5644 -72.8094 60° Northeast 360 414 18,100 -1,033 Descending Boston Center
Wed 04:27:51 PM 42.6169 -72.6969 58° Northeast 354 407 16,900 -1,563 Descending Boston Center
Wed 04:28:49 PM 42.6669 -72.5897 58° Northeast 348 400 15,000 -2,034 Descending Boston Center
Wed 04:29:49 PM 42.7131 -72.4797 60° Northeast 338 389 12,900 -1,835 Descending Boston Center
Wed 04:30:50 PM 42.7608 -72.3694 59° Northeast 338 389 11,300 -1,230 Descending Boston Center
Wed 04:31:51 PM 42.7942 -72.2844 62° Northeast 333 383 10,400 -1,210 Descending Boston Center
Wed 04:32:49 PM 42.8064 -72.1431 83° East 313 360 8,900 -1,373 Descending Boston Center
Wed 04:33:49 PM 42.8144 -72.0411 84° East 307 353 7,700 -1,240 Descending Boston Center
Wed 04:34:50 PM 42.8139 -71.9222 90° East 291 335 6,400 -1,230 Descending Boston Center
Wed 04:35:51 PM 42.8072 -71.8317 96° East 279 321 5,200 -1,210 Descending Boston Center
Wed 04:36:49 PM 42.8067 -71.7128 90° East 273 314 4,000 -555 Descending Boston Center
Wed 04:37:50 PM 42.8100 -71.6250 87° East 273 314 4,100 -98 Climbing Boston Center
Wed 04:38:51 PM 42.8133 -71.5117 88° East 268 308 3,800 -744 Descending Boston Center
Wed 04:39:51 PM 42.8167 -71.4183 87° East 257 296 2,600 -843 Descending Boston Center
Wed 04:40:52 PM 42.8394 -71.3756 54° Northeast 148 170 2,100 -661 Descending Boston Center
Wed 04:41:49 PM 42.8750 -71.4003 333° Northwest 103 119 1,300 -706 Descending Boston Center
Wed 04:42:51 PM 42.9064 -71.4197 336° Northwest 114 131 700 -393 Descending Boston Center
Wed 04:43:51 PM 42.9378 -71.4361 339° North 119 137 500 4,150 Descending Boston Center
Wed 04:44:51 PM 42.9692 -71.4583 333° Northwest 119 137 9,000 4,322 Climbing Boston Center
Wed 04:45:49 PM 43.0008 -71.4778 336° Northwest 119 137 9,000  Level Boston Center
Wed 04:47:00 PM 42.9328 -71.4358 166° South  Level Estimated
Wed 04:54:00 PM 42.9328 -71.4358 166° South  Level Estimated
Wed 04:55:00 PM 42.9328 -71.4358 166° South  Level Estimated
Wed 04:56:00 PM 42.9328 -71.4358 166° South  Level Estimated
Wed 04:57:00 PM 42.9328 -71.4358 166° South  Level Estimated
Wed 04:58:00 PM 42.9328 -71.4358 166° South  Level Estimated
Wed 04:59:00 PM 42.9328 -71.4358 166° South  Level Estimated

Login

Don't have an account? Register now (free) for customized features, flight alerts, and more!